sensor_id;sensor_type;location;lat;lon;timestamp;P1;durP1;ratioP1;P2;durP2;ratioP2
23804;SDS011;12083;52.098;7.582;2022-08-21T00:00:17;10.07;;;3.20;;
23804;SDS011;12083;52.098;7.582;2022-08-21T00:02:57;7.33;;;2.53;;
23804;SDS011;12083;52.098;7.582;2022-08-21T00:05:35;12.47;;;3.23;;
23804;SDS011;12083;52.098;7.582;2022-08-21T00:08:04;6.70;;;2.60;;
23804;SDS011;12083;52.098;7.582;2022-08-21T00:10:30;6.63;;;2.33;;
23804;SDS011;12083;52.098;7.582;2022-08-21T00:12:56;7.27;;;4.00;;
23804;SDS011;12083;52.098;7.582;2022-08-21T00:15:27;7.80;;;2.70;;
23804;SDS011;12083;52.098;7.582;2022-08-21T00:17:54;4.83;;;2.00;;
23804;SDS011;12083;52.098;7.582;2022-08-21T00:20:21;10.17;;;3.17;;
23804;SDS011;12083;52.098;7.582;2022-08-21T00:22:47;12.40;;;2.70;;
23804;SDS011;12083;52.098;7.582;2022-08-21T00:25:13;10.73;;;2.80;;
23804;SDS011;12083;52.098;7.582;2022-08-21T00:27:40;9.10;;;2.83;;
23804;SDS011;12083;52.098;7.582;2022-08-21T00:30:12;9.40;;;2.90;;
23804;SDS011;12083;52.098;7.582;2022-08-21T00:32:40;10.50;;;2.80;;
23804;SDS011;12083;52.098;7.582;2022-08-21T00:35:08;9.77;;;3.00;;
23804;SDS011;12083;52.098;7.582;2022-08-21T00:37:37;5.70;;;2.73;;
23804;SDS011;12083;52.098;7.582;2022-08-21T00:40:06;5.90;;;3.37;;
23804;SDS011;12083;52.098;7.582;2022-08-21T00:42:34;7.03;;;3.70;;
23804;SDS011;12083;52.098;7.582;2022-08-21T00:44:59;6.70;;;2.60;;
23804;SDS011;12083;52.098;7.582;2022-08-21T00:47:25;7.50;;;2.83;;
23804;SDS011;12083;52.098;7.582;2022-08-21T00:49:51;8.77;;;3.20;;
23804;SDS011;12083;52.098;7.582;2022-08-21T00:52:21;11.90;;;3.57;;
23804;SDS011;12083;52.098;7.582;2022-08-21T00:54:52;15.10;;;3.20;;
23804;SDS011;12083;52.098;7.582;2022-08-21T00:57:21;8.23;;;3.00;;
23804;SDS011;12083;52.098;7.582;2022-08-21T00:59:52;7.90;;;3.30;;
23804;SDS011;12083;52.098;7.582;2022-08-21T01:02:21;7.97;;;3.17;;
23804;SDS011;12083;52.098;7.582;2022-08-21T01:04:47;9.40;;;3.20;;
23804;SDS011;12083;52.098;7.582;2022-08-21T01:07:13;8.53;;;3.10;;
23804;SDS011;12083;52.098;7.582;2022-08-21T01:09:39;11.47;;;3.47;;
23804;SDS011;12083;52.098;7.582;2022-08-21T01:12:06;4.70;;;2.93;;
23804;SDS011;12083;52.098;7.582;2022-08-21T01:14:32;7.57;;;2.90;;
23804;SDS011;12083;52.098;7.582;2022-08-21T01:16:58;6.13;;;3.30;;
23804;SDS011;12083;52.098;7.582;2022-08-21T01:19:26;8.93;;;3.30;;
23804;SDS011;12083;52.098;7.582;2022-08-21T01:21:52;7.93;;;3.70;;
23804;SDS011;12083;52.098;7.582;2022-08-21T01:24:19;8.23;;;2.80;;
23804;SDS011;12083;52.098;7.582;2022-08-21T01:26:46;13.47;;;3.70;;
23804;SDS011;12083;52.098;7.582;2022-08-21T01:29:15;15.10;;;4.10;;
23804;SDS011;12083;52.098;7.582;2022-08-21T01:31:41;4.63;;;3.23;;
23804;SDS011;12083;52.098;7.582;2022-08-21T01:34:08;10.00;;;4.17;;
23804;SDS011;12083;52.098;7.582;2022-08-21T01:36:34;11.63;;;4.90;;
23804;SDS011;12083;52.098;7.582;2022-08-21T01:39:00;17.93;;;3.60;;
23804;SDS011;12083;52.098;7.582;2022-08-21T01:41:27;8.67;;;2.70;;
23804;SDS011;12083;52.098;7.582;2022-08-21T01:43:52;16.80;;;3.87;;
23804;SDS011;12083;52.098;7.582;2022-08-21T01:46:18;12.50;;;3.20;;
23804;SDS011;12083;52.098;7.582;2022-08-21T01:48:44;8.57;;;3.97;;
23804;SDS011;12083;52.098;7.582;2022-08-21T01:51:10;8.13;;;3.27;;
23804;SDS011;12083;52.098;7.582;2022-08-21T01:53:37;8.30;;;3.40;;
23804;SDS011;12083;52.098;7.582;2022-08-21T01:56:03;6.03;;;3.70;;
23804;SDS011;12083;52.098;7.582;2022-08-21T01:58:31;11.53;;;3.30;;
23804;SDS011;12083;52.098;7.582;2022-08-21T02:00:58;8.13;;;3.57;;
23804;SDS011;12083;52.098;7.582;2022-08-21T02:03:23;6.87;;;2.90;;
23804;SDS011;12083;52.098;7.582;2022-08-21T02:05:49;6.57;;;3.33;;
23804;SDS011;12083;52.098;7.582;2022-08-21T02:08:14;9.40;;;3.33;;
23804;SDS011;12083;52.098;7.582;2022-08-21T02:10:40;7.37;;;3.80;;
23804;SDS011;12083;52.098;7.582;2022-08-21T02:13:06;11.97;;;4.10;;
23804;SDS011;12083;52.098;7.582;2022-08-21T02:15:32;15.90;;;4.47;;
23804;SDS011;12083;52.098;7.582;2022-08-21T02:17:59;4.50;;;4.10;;
23804;SDS011;12083;52.098;7.582;2022-08-21T02:20:34;4.73;;;3.60;;
23804;SDS011;12083;52.098;7.582;2022-08-21T02:23:01;12.70;;;5.17;;
23804;SDS011;12083;52.098;7.582;2022-08-21T02:25:27;13.37;;;4.10;;
23804;SDS011;12083;52.098;7.582;2022-08-21T02:27:53;17.93;;;4.30;;
23804;SDS011;12083;52.098;7.582;2022-08-21T02:30:28;9.03;;;4.07;;
23804;SDS011;12083;52.098;7.582;2022-08-21T02:32:56;15.03;;;3.63;;
23804;SDS011;12083;52.098;7.582;2022-08-21T02:35:22;4.80;;;3.73;;
23804;SDS011;12083;52.098;7.582;2022-08-21T02:40:17;11.03;;;3.80;;
23804;SDS011;12083;52.098;7.582;2022-08-21T02:42:46;7.63;;;3.60;;
23804;SDS011;12083;52.098;7.582;2022-08-21T02:45:12;6.50;;;3.87;;
23804;SDS011;12083;52.098;7.582;2022-08-21T02:47:38;11.90;;;4.50;;
23804;SDS011;12083;52.098;7.582;2022-08-21T02:50:05;5.00;;;3.90;;
23804;SDS011;12083;52.098;7.582;2022-08-21T02:52:32;3.93;;;3.53;;
23804;SDS011;12083;52.098;7.582;2022-08-21T02:55:00;6.73;;;4.03;;
23804;SDS011;12083;52.098;7.582;2022-08-21T02:57:25;8.00;;;3.90;;
23804;SDS011;12083;52.098;7.582;2022-08-21T02:59:51;12.80;;;4.10;;
23804;SDS011;12083;52.098;7.582;2022-08-21T03:02:17;6.90;;;3.63;;
23804;SDS011;12083;52.098;7.582;2022-08-21T03:04:42;8.73;;;3.60;;
23804;SDS011;12083;52.098;7.582;2022-08-21T03:07:08;5.57;;;3.50;;
23804;SDS011;12083;52.098;7.582;2022-08-21T03:09:33;18.70;;;3.70;;
23804;SDS011;12083;52.098;7.582;2022-08-21T03:11:59;5.33;;;3.67;;
23804;SDS011;12083;52.098;7.582;2022-08-21T03:14:24;7.20;;;3.63;;
23804;SDS011;12083;52.098;7.582;2022-08-21T03:16:50;6.33;;;3.87;;
23804;SDS011;12083;52.098;7.582;2022-08-21T03:19:16;10.53;;;4.30;;
23804;SDS011;12083;52.098;7.582;2022-08-21T03:21:42;15.07;;;4.07;;
23804;SDS011;12083;52.098;7.582;2022-08-21T03:24:07;5.93;;;3.93;;
23804;SDS011;12083;52.098;7.582;2022-08-21T03:26:34;7.20;;;3.50;;
23804;SDS011;12083;52.098;7.582;2022-08-21T03:29:00;6.53;;;4.63;;
23804;SDS011;12083;52.098;7.582;2022-08-21T03:31:26;6.00;;;3.70;;
23804;SDS011;12083;52.098;7.582;2022-08-21T03:33:57;9.83;;;4.43;;
23804;SDS011;12083;52.098;7.582;2022-08-21T03:36:23;2.90;;;2.70;;
23804;SDS011;12083;52.098;7.582;2022-08-21T03:38:49;7.40;;;4.13;;
23804;SDS011;12083;52.098;7.582;2022-08-21T03:41:15;6.50;;;3.60;;
23804;SDS011;12083;52.098;7.582;2022-08-21T03:43:41;9.90;;;4.07;;
23804;SDS011;12083;52.098;7.582;2022-08-21T03:46:06;11.40;;;4.50;;
23804;SDS011;12083;52.098;7.582;2022-08-21T03:48:33;9.50;;;4.37;;
23804;SDS011;12083;52.098;7.582;2022-08-21T03:51:01;10.87;;;4.70;;
23804;SDS011;12083;52.098;7.582;2022-08-21T03:53:27;14.73;;;4.87;;
23804;SDS011;12083;52.098;7.582;2022-08-21T03:55:53;9.63;;;4.50;;
23804;SDS011;12083;52.098;7.582;2022-08-21T03:58:20;7.90;;;4.27;;
23804;SDS011;12083;52.098;7.582;2022-08-21T04:00:50;13.97;;;5.10;;
23804;SDS011;12083;52.098;7.582;2022-08-21T04:03:17;9.00;;;4.00;;
23804;SDS011;12083;52.098;7.582;2022-08-21T04:05:43;11.13;;;4.77;;
23804;SDS011;12083;52.098;7.582;2022-08-21T04:08:11;11.30;;;4.90;;
23804;SDS011;12083;52.098;7.582;2022-08-21T04:10:38;10.10;;;4.50;;
23804;SDS011;12083;52.098;7.582;2022-08-21T04:13:06;11.93;;;4.13;;
23804;SDS011;12083;52.098;7.582;2022-08-21T05:15:45;9.07;;;3.77;;
23804;SDS011;12083;52.098;7.582;2022-08-21T05:18:11;9.60;;;4.30;;
23804;SDS011;12083;52.098;7.582;2022-08-21T05:20:37;6.37;;;3.90;;
23804;SDS011;12083;52.098;7.582;2022-08-21T05:23:06;10.23;;;4.73;;
23804;SDS011;12083;52.098;7.582;2022-08-21T05:25:33;15.00;;;4.30;;
23804;SDS011;12083;52.098;7.582;2022-08-21T05:27:59;12.50;;;4.90;;
23804;SDS011;12083;52.098;7.582;2022-08-21T05:30:25;9.80;;;4.43;;
23804;SDS011;12083;52.098;7.582;2022-08-21T05:32:55;11.10;;;4.40;;
23804;SDS011;12083;52.098;7.582;2022-08-21T05:35:24;9.83;;;5.00;;
23804;SDS011;12083;52.098;7.582;2022-08-21T05:37:51;12.77;;;4.23;;
23804;SDS011;12083;52.098;7.582;2022-08-21T05:40:16;8.87;;;4.53;;
23804;SDS011;12083;52.098;7.582;2022-08-21T05:42:43;8.23;;;5.10;;
23804;SDS011;12083;52.098;7.582;2022-08-21T05:45:08;7.43;;;5.17;;
23804;SDS011;12083;52.098;7.582;2022-08-21T05:47:34;14.33;;;5.17;;
23804;SDS011;12083;52.098;7.582;2022-08-21T05:49:59;21.67;;;5.47;;
23804;SDS011;12083;52.098;7.582;2022-08-21T05:52:25;10.23;;;5.80;;
23804;SDS011;12083;52.098;7.582;2022-08-21T05:54:50;13.57;;;5.57;;
23804;SDS011;12083;52.098;7.582;2022-08-21T05:57:19;14.93;;;5.60;;
23804;SDS011;12083;52.098;7.582;2022-08-21T05:59:45;12.23;;;5.10;;
23804;SDS011;12083;52.098;7.582;2022-08-21T06:02:11;10.70;;;4.57;;
23804;SDS011;12083;52.098;7.582;2022-08-21T06:04:40;9.87;;;4.93;;
23804;SDS011;12083;52.098;7.582;2022-08-21T06:07:06;8.33;;;4.50;;
23804;SDS011;12083;52.098;7.582;2022-08-21T06:09:32;17.67;;;4.90;;
23804;SDS011;12083;52.098;7.582;2022-08-21T06:11:58;11.30;;;5.23;;
23804;SDS011;12083;52.098;7.582;2022-08-21T06:14:29;11.07;;;5.10;;
23804;SDS011;12083;52.098;7.582;2022-08-21T06:16:54;10.30;;;5.00;;
23804;SDS011;12083;52.098;7.582;2022-08-21T06:19:27;10.00;;;4.07;;
23804;SDS011;12083;52.098;7.582;2022-08-21T06:21:53;11.10;;;3.90;;
23804;SDS011;12083;52.098;7.582;2022-08-21T06:24:18;11.40;;;3.93;;
23804;SDS011;12083;52.098;7.582;2022-08-21T06:26:44;9.87;;;4.00;;
23804;SDS011;12083;52.098;7.582;2022-08-21T06:29:09;6.17;;;3.80;;
23804;SDS011;12083;52.098;7.582;2022-08-21T06:31:38;8.40;;;4.00;;
23804;SDS011;12083;52.098;7.582;2022-08-21T06:34:04;8.40;;;3.30;;
23804;SDS011;12083;52.098;7.582;2022-08-21T06:36:29;7.70;;;3.50;;
23804;SDS011;12083;52.098;7.582;2022-08-21T06:38:55;6.33;;;3.00;;
23804;SDS011;12083;52.098;7.582;2022-08-21T06:41:21;6.53;;;3.20;;
23804;SDS011;12083;52.098;7.582;2022-08-21T06:43:46;5.00;;;2.67;;
23804;SDS011;12083;52.098;7.582;2022-08-21T06:46:12;8.57;;;2.83;;
23804;SDS011;12083;52.098;7.582;2022-08-21T06:48:38;7.35;;;2.78;;
23804;SDS011;12083;52.098;7.582;2022-08-21T06:51:03;9.00;;;3.85;;
23804;SDS011;12083;52.098;7.582;2022-08-21T06:53:29;5.30;;;2.33;;
23804;SDS011;12083;52.098;7.582;2022-08-21T06:55:55;5.03;;;2.72;;
23804;SDS011;12083;52.098;7.582;2022-08-21T06:58:20;11.48;;;3.55;;
23804;SDS011;12083;52.098;7.582;2022-08-21T07:00:47;8.32;;;2.90;;
23804;SDS011;12083;52.098;7.582;2022-08-21T07:03:18;7.43;;;3.08;;
23804;SDS011;12083;52.098;7.582;2022-08-21T07:05:45;8.15;;;3.15;;
23804;SDS011;12083;52.098;7.582;2022-08-21T07:08:11;16.25;;;3.20;;
23804;SDS011;12083;52.098;7.582;2022-08-21T07:10:36;10.90;;;2.90;;
23804;SDS011;12083;52.098;7.582;2022-08-21T07:13:02;9.52;;;2.83;;
23804;SDS011;12083;52.098;7.582;2022-08-21T07:15:28;11.48;;;2.85;;
23804;SDS011;12083;52.098;7.582;2022-08-21T07:17:54;7.45;;;2.63;;
23804;SDS011;12083;52.098;7.582;2022-08-21T07:20:20;10.30;;;3.08;;
23804;SDS011;12083;52.098;7.582;2022-08-21T07:22:46;9.07;;;2.65;;
23804;SDS011;12083;52.098;7.582;2022-08-21T07:25:11;6.25;;;2.47;;
23804;SDS011;12083;52.098;7.582;2022-08-21T07:27:37;4.88;;;2.40;;
23804;SDS011;12083;52.098;7.582;2022-08-21T07:30:03;8.32;;;2.50;;
23804;SDS011;12083;52.098;7.582;2022-08-21T07:32:30;4.15;;;1.77;;
23804;SDS011;12083;52.098;7.582;2022-08-21T07:34:55;4.05;;;2.05;;
23804;SDS011;12083;52.098;7.582;2022-08-21T07:37:21;7.25;;;2.28;;
23804;SDS011;12083;52.098;7.582;2022-08-21T07:39:47;6.28;;;2.92;;
23804;SDS011;12083;52.098;7.582;2022-08-21T07:42:14;2.70;;;2.45;;
23804;SDS011;12083;52.098;7.582;2022-08-21T07:44:41;6.45;;;3.28;;
23804;SDS011;12083;52.098;7.582;2022-08-21T07:47:06;4.07;;;1.80;;
23804;SDS011;12083;52.098;7.582;2022-08-21T07:49:32;6.82;;;1.92;;
23804;SDS011;12083;52.098;7.582;2022-08-21T07:51:57;9.40;;;2.25;;
23804;SDS011;12083;52.098;7.582;2022-08-21T07:54:23;7.28;;;2.33;;
23804;SDS011;12083;52.098;7.582;2022-08-21T07:56:48;6.95;;;2.42;;
23804;SDS011;12083;52.098;7.582;2022-08-21T07:59:14;6.13;;;2.42;;
23804;SDS011;12083;52.098;7.582;2022-08-21T08:01:40;6.85;;;1.70;;
23804;SDS011;12083;52.098;7.582;2022-08-21T08:04:05;5.38;;;2.00;;
23804;SDS011;12083;52.098;7.582;2022-08-21T08:06:31;6.10;;;2.08;;
23804;SDS011;12083;52.098;7.582;2022-08-21T08:08:56;4.30;;;2.30;;
23804;SDS011;12083;52.098;7.582;2022-08-21T08:11:22;6.17;;;1.93;;
23804;SDS011;12083;52.098;7.582;2022-08-21T08:13:48;10.43;;;2.13;;
23804;SDS011;12083;52.098;7.582;2022-08-21T08:16:16;7.37;;;2.50;;
23804;SDS011;12083;52.098;7.582;2022-08-21T08:18:42;14.60;;;3.53;;
23804;SDS011;12083;52.098;7.582;2022-08-21T08:21:08;14.20;;;3.67;;
23804;SDS011;12083;52.098;7.582;2022-08-21T08:23:35;8.70;;;3.63;;
23804;SDS011;12083;52.098;7.582;2022-08-21T08:26:01;12.70;;;4.93;;
23804;SDS011;12083;52.098;7.582;2022-08-21T08:28:30;9.83;;;3.57;;
23804;SDS011;12083;52.098;7.582;2022-08-21T08:30:57;10.37;;;3.47;;
23804;SDS011;12083;52.098;7.582;2022-08-21T08:33:23;11.47;;;4.00;;
23804;SDS011;12083;52.098;7.582;2022-08-21T08:35:49;12.93;;;4.67;;
23804;SDS011;12083;52.098;7.582;2022-08-21T08:38:17;12.47;;;5.37;;
23804;SDS011;12083;52.098;7.582;2022-08-21T08:43:18;12.77;;;5.43;;
23804;SDS011;12083;52.098;7.582;2022-08-21T08:45:45;11.83;;;5.10;;
23804;SDS011;12083;52.098;7.582;2022-08-21T08:48:15;17.57;;;5.80;;
23804;SDS011;12083;52.098;7.582;2022-08-21T08:51:06;11.27;;;5.67;;
23804;SDS011;12083;52.098;7.582;2022-08-21T08:53:42;12.57;;;6.20;;
23804;SDS011;12083;52.098;7.582;2022-08-21T08:56:14;14.17;;;5.40;;
23804;SDS011;12083;52.098;7.582;2022-08-21T08:58:40;12.27;;;4.13;;
23804;SDS011;12083;52.098;7.582;2022-08-21T09:01:15;19.80;;;5.53;;
23804;SDS011;12083;52.098;7.582;2022-08-21T09:03:42;13.80;;;5.83;;
23804;SDS011;12083;52.098;7.582;2022-08-21T09:06:22;15.27;;;5.00;;
23804;SDS011;12083;52.098;7.582;2022-08-21T09:12:07;16.57;;;5.13;;
23804;SDS011;12083;52.098;7.582;2022-08-21T09:17:37;12.47;;;4.67;;
23804;SDS011;12083;52.098;7.582;2022-08-21T09:20:28;9.80;;;3.60;;
23804;SDS011;12083;52.098;7.582;2022-08-21T09:26:11;14.97;;;4.20;;
23804;SDS011;12083;52.098;7.582;2022-08-21T09:28:43;12.13;;;4.00;;
23804;SDS011;12083;52.098;7.582;2022-08-21T09:31:21;10.37;;;3.93;;
23804;SDS011;12083;52.098;7.582;2022-08-21T09:33:46;10.97;;;3.33;;
23804;SDS011;12083;52.098;7.582;2022-08-21T09:36:12;8.07;;;3.40;;
23804;SDS011;12083;52.098;7.582;2022-08-21T09:38:51;12.73;;;3.13;;
23804;SDS011;12083;52.098;7.582;2022-08-21T09:41:26;14.73;;;3.00;;
23804;SDS011;12083;52.098;7.582;2022-08-21T09:43:53;10.13;;;2.40;;
23804;SDS011;12083;52.098;7.582;2022-08-21T09:46:26;12.53;;;2.73;;
23804;SDS011;12083;52.098;7.582;2022-08-21T09:48:54;10.23;;;2.50;;
23804;SDS011;12083;52.098;7.582;2022-08-21T09:53:57;19.17;;;3.00;;
23804;SDS011;12083;52.098;7.582;2022-08-21T09:56:38;10.93;;;2.77;;
23804;SDS011;12083;52.098;7.582;2022-08-21T09:59:37;11.17;;;2.33;;
23804;SDS011;12083;52.098;7.582;2022-08-21T10:02:17;11.77;;;2.77;;
23804;SDS011;12083;52.098;7.582;2022-08-21T10:05:00;11.37;;;2.50;;
23804;SDS011;12083;52.098;7.582;2022-08-21T10:07:29;5.63;;;2.77;;
23804;SDS011;12083;52.098;7.582;2022-08-21T10:10:00;12.60;;;2.77;;
23804;SDS011;12083;52.098;7.582;2022-08-21T10:20:50;6.87;;;2.27;;
23804;SDS011;12083;52.098;7.582;2022-08-21T10:29:30;4.50;;;1.90;;
23804;SDS011;12083;52.098;7.582;2022-08-21T10:32:22;8.63;;;2.30;;
23804;SDS011;12083;52.098;7.582;2022-08-21T10:35:15;5.50;;;1.87;;
23804;SDS011;12083;52.098;7.582;2022-08-21T10:40:29;9.00;;;2.03;;
23804;SDS011;12083;52.098;7.582;2022-08-21T10:43:08;6.27;;;2.20;;
23804;SDS011;12083;52.098;7.582;2022-08-21T10:46:12;7.23;;;2.07;;
23804;SDS011;12083;52.098;7.582;2022-08-21T10:48:47;4.40;;;2.00;;
23804;SDS011;12083;52.098;7.582;2022-08-21T10:54:13;3.27;;;1.63;;
23804;SDS011;12083;52.098;7.582;2022-08-21T10:56:51;5.20;;;1.57;;
23804;SDS011;12083;52.098;7.582;2022-08-21T11:05:09;7.20;;;1.50;;
23804;SDS011;12083;52.098;7.582;2022-08-21T11:07:38;4.73;;;1.90;;
23804;SDS011;12083;52.098;7.582;2022-08-21T11:13:06;5.10;;;1.60;;
23804;SDS011;12083;52.098;7.582;2022-08-21T11:18:53;7.07;;;2.07;;
23804;SDS011;12083;52.098;7.582;2022-08-21T11:21:35;3.97;;;1.50;;
23804;SDS011;12083;52.098;7.582;2022-08-21T11:24:12;3.75;;;1.50;;
23804;SDS011;12083;52.098;7.582;2022-08-21T11:26:50;2.97;;;1.55;;
23804;SDS011;12083;52.098;7.582;2022-08-21T11:29:27;3.38;;;1.20;;
23804;SDS011;12083;52.098;7.582;2022-08-21T11:37:19;6.65;;;2.03;;
23804;SDS011;12083;52.098;7.582;2022-08-21T11:45:39;6.10;;;1.77;;
23804;SDS011;12083;52.098;7.582;2022-08-21T11:48:16;3.08;;;1.17;;
23804;SDS011;12083;52.098;7.582;2022-08-21T11:50:45;2.88;;;1.20;;
23804;SDS011;12083;52.098;7.582;2022-08-21T11:53:14;3.25;;;1.33;;
23804;SDS011;12083;52.098;7.582;2022-08-21T11:55:48;2.65;;;1.25;;
23804;SDS011;12083;52.098;7.582;2022-08-21T11:58:28;2.58;;;1.27;;
23804;SDS011;12083;52.098;7.582;2022-08-21T12:01:03;5.18;;;1.30;;
23804;SDS011;12083;52.098;7.582;2022-08-21T12:03:35;2.25;;;1.38;;
23804;SDS011;12083;52.098;7.582;2022-08-21T12:06:08;3.00;;;1.52;;
23804;SDS011;12083;52.098;7.582;2022-08-21T12:08:40;3.53;;;1.40;;
23804;SDS011;12083;52.098;7.582;2022-08-21T12:13:59;4.03;;;1.45;;
23804;SDS011;12083;52.098;7.582;2022-08-21T12:16:41;1.48;;;0.90;;
23804;SDS011;12083;52.098;7.582;2022-08-21T12:19:33;3.10;;;1.30;;
23804;SDS011;12083;52.098;7.582;2022-08-21T12:27:14;4.75;;;1.55;;
23804;SDS011;12083;52.098;7.582;2022-08-21T12:29:50;2.30;;;1.30;;
23804;SDS011;12083;52.098;7.582;2022-08-21T12:32:42;1.80;;;0.80;;
23804;SDS011;12083;52.098;7.582;2022-08-21T12:35:18;4.25;;;1.20;;
23804;SDS011;12083;52.098;7.582;2022-08-21T12:38:07;4.40;;;0.95;;
23804;SDS011;12083;52.098;7.582;2022-08-21T12:40:48;4.45;;;1.20;;
23804;SDS011;12083;52.098;7.582;2022-08-21T12:43:24;2.97;;;1.17;;
23804;SDS011;12083;52.098;7.582;2022-08-21T12:45:55;2.10;;;1.20;;
23804;SDS011;12083;52.098;7.582;2022-08-21T12:48:26;5.00;;;1.42;;
23804;SDS011;12083;52.098;7.582;2022-08-21T12:50:54;5.20;;;1.83;;
23804;SDS011;12083;52.098;7.582;2022-08-21T12:54:04;2.80;;;1.00;;
23804;SDS011;12083;52.098;7.582;2022-08-21T12:56:19;4.47;;;0.90;;
23804;SDS011;12083;52.098;7.582;2022-08-21T12:58:48;2.83;;;1.10;;
23804;SDS011;12083;52.098;7.582;2022-08-21T13:01:18;2.60;;;1.00;;
23804;SDS011;12083;52.098;7.582;2022-08-21T13:03:44;3.60;;;1.40;;
23804;SDS011;12083;52.098;7.582;2022-08-21T13:06:15;3.07;;;1.00;;
23804;SDS011;12083;52.098;7.582;2022-08-21T13:08:44;3.13;;;1.20;;
23804;SDS011;12083;52.098;7.582;2022-08-21T13:11:12;10.77;;;1.07;;
23804;SDS011;12083;52.098;7.582;2022-08-21T13:13:41;3.60;;;1.40;;
23804;SDS011;12083;52.098;7.582;2022-08-21T13:16:08;3.77;;;0.97;;
23804;SDS011;12083;52.098;7.582;2022-08-21T13:18:35;3.77;;;1.50;;
23804;SDS011;12083;52.098;7.582;2022-08-21T13:21:18;3.33;;;1.33;;
23804;SDS011;12083;52.098;7.582;2022-08-21T13:23:44;6.73;;;1.53;;
23804;SDS011;12083;52.098;7.582;2022-08-21T13:26:16;7.93;;;1.70;;
23804;SDS011;12083;52.098;7.582;2022-08-21T13:28:44;9.07;;;1.60;;
23804;SDS011;12083;52.098;7.582;2022-08-21T13:31:15;2.80;;;1.37;;
23804;SDS011;12083;52.098;7.582;2022-08-21T13:33:46;3.03;;;0.97;;
23804;SDS011;12083;52.098;7.582;2022-08-21T13:36:17;7.07;;;1.30;;
23804;SDS011;12083;52.098;7.582;2022-08-21T13:38:51;3.03;;;1.40;;
23804;SDS011;12083;52.098;7.582;2022-08-21T13:41:20;4.67;;;1.60;;
23804;SDS011;12083;52.098;7.582;2022-08-21T13:43:56;11.53;;;1.27;;
23804;SDS011;12083;52.098;7.582;2022-08-21T13:46:28;3.50;;;1.40;;
23804;SDS011;12083;52.098;7.582;2022-08-21T13:48:56;4.47;;;1.60;;
23804;SDS011;12083;52.098;7.582;2022-08-21T13:51:24;2.80;;;1.17;;
23804;SDS011;12083;52.098;7.582;2022-08-21T13:53:50;3.13;;;1.27;;
23804;SDS011;12083;52.098;7.582;2022-08-21T13:58:49;2.40;;;1.20;;
23804;SDS011;12083;52.098;7.582;2022-08-21T14:01:38;3.43;;;1.23;;
23804;SDS011;12083;52.098;7.582;2022-08-21T14:04:16;2.50;;;1.40;;
23804;SDS011;12083;52.098;7.582;2022-08-21T14:06:45;9.23;;;1.40;;
23804;SDS011;12083;52.098;7.582;2022-08-21T14:09:13;5.17;;;1.60;;
23804;SDS011;12083;52.098;7.582;2022-08-21T14:11:49;9.63;;;1.67;;
23804;SDS011;12083;52.098;7.582;2022-08-21T14:14:25;5.57;;;1.33;;
23804;SDS011;12083;52.098;7.582;2022-08-21T14:16:56;4.50;;;1.13;;
23804;SDS011;12083;52.098;7.582;2022-08-21T14:19:26;3.97;;;1.20;;
23804;SDS011;12083;52.098;7.582;2022-08-21T14:25:05;4.90;;;1.60;;
23804;SDS011;12083;52.098;7.582;2022-08-21T14:27:42;5.00;;;1.70;;
23804;SDS011;12083;52.098;7.582;2022-08-21T14:30:12;4.30;;;1.20;;
23804;SDS011;12083;52.098;7.582;2022-08-21T14:32:58;5.20;;;1.47;;
23804;SDS011;12083;52.098;7.582;2022-08-21T14:35:25;7.30;;;1.17;;
23804;SDS011;12083;52.098;7.582;2022-08-21T14:37:51;2.00;;;1.47;;
23804;SDS011;12083;52.098;7.582;2022-08-21T14:40:18;6.13;;;1.50;;
23804;SDS011;12083;52.098;7.582;2022-08-21T14:42:45;11.20;;;2.00;;
23804;SDS011;12083;52.098;7.582;2022-08-21T14:45:16;8.27;;;1.47;;
23804;SDS011;12083;52.098;7.582;2022-08-21T14:47:44;6.17;;;1.33;;
23804;SDS011;12083;52.098;7.582;2022-08-21T14:50:10;4.57;;;1.63;;
23804;SDS011;12083;52.098;7.582;2022-08-21T14:52:36;9.50;;;1.93;;
23804;SDS011;12083;52.098;7.582;2022-08-21T14:55:03;5.03;;;1.67;;
23804;SDS011;12083;52.098;7.582;2022-08-21T14:57:30;2.10;;;1.10;;
23804;SDS011;12083;52.098;7.582;2022-08-21T14:59:56;3.90;;;1.50;;
23804;SDS011;12083;52.098;7.582;2022-08-21T15:02:22;2.80;;;1.33;;
23804;SDS011;12083;52.098;7.582;2022-08-21T15:04:48;5.03;;;1.47;;
23804;SDS011;12083;52.098;7.582;2022-08-21T15:07:13;7.00;;;1.50;;
23804;SDS011;12083;52.098;7.582;2022-08-21T15:09:39;3.63;;;1.83;;
23804;SDS011;12083;52.098;7.582;2022-08-21T15:12:05;5.40;;;1.37;;
23804;SDS011;12083;52.098;7.582;2022-08-21T15:14:32;5.03;;;1.53;;
23804;SDS011;12083;52.098;7.582;2022-08-21T15:17:00;7.00;;;3.03;;
23804;SDS011;12083;52.098;7.582;2022-08-21T15:19:28;3.63;;;1.40;;
23804;SDS011;12083;52.098;7.582;2022-08-21T15:21:54;3.30;;;1.37;;
23804;SDS011;12083;52.098;7.582;2022-08-21T15:24:20;8.90;;;1.90;;
23804;SDS011;12083;52.098;7.582;2022-08-21T15:26:46;4.77;;;1.50;;
23804;SDS011;12083;52.098;7.582;2022-08-21T15:29:12;2.50;;;1.20;;
23804;SDS011;12083;52.098;7.582;2022-08-21T15:31:49;4.73;;;1.77;;
23804;SDS011;12083;52.098;7.582;2022-08-21T15:34:20;4.33;;;1.60;;
23804;SDS011;12083;52.098;7.582;2022-08-21T15:36:46;7.40;;;1.40;;
23804;SDS011;12083;52.098;7.582;2022-08-21T15:39:12;6.93;;;1.60;;
23804;SDS011;12083;52.098;7.582;2022-08-21T15:41:38;5.10;;;1.43;;
23804;SDS011;12083;52.098;7.582;2022-08-21T15:44:03;4.97;;;1.50;;
23804;SDS011;12083;52.098;7.582;2022-08-21T15:46:29;7.63;;;1.53;;
23804;SDS011;12083;52.098;7.582;2022-08-21T15:48:55;5.87;;;1.70;;
23804;SDS011;12083;52.098;7.582;2022-08-21T15:51:20;2.50;;;1.10;;
23804;SDS011;12083;52.098;7.582;2022-08-21T15:53:46;4.60;;;1.47;;
23804;SDS011;12083;52.098;7.582;2022-08-21T15:56:22;3.90;;;1.33;;
23804;SDS011;12083;52.098;7.582;2022-08-21T15:58:50;5.30;;;1.47;;
23804;SDS011;12083;52.098;7.582;2022-08-21T16:01:19;9.43;;;1.10;;
23804;SDS011;12083;52.098;7.582;2022-08-21T16:03:46;4.20;;;1.07;;
23804;SDS011;12083;52.098;7.582;2022-08-21T16:06:15;4.90;;;1.30;;
23804;SDS011;12083;52.098;7.582;2022-08-21T16:08:40;5.33;;;1.57;;
23804;SDS011;12083;52.098;7.582;2022-08-21T16:11:06;6.13;;;1.60;;
23804;SDS011;12083;52.098;7.582;2022-08-21T16:13:34;5.60;;;1.07;;
23804;SDS011;12083;52.098;7.582;2022-08-21T16:16:04;2.97;;;1.37;;
23804;SDS011;12083;52.098;7.582;2022-08-21T16:18:30;6.63;;;1.53;;
23804;SDS011;12083;52.098;7.582;2022-08-21T16:20:57;4.83;;;1.60;;
23804;SDS011;12083;52.098;7.582;2022-08-21T16:23:23;3.30;;;1.13;;
23804;SDS011;12083;52.098;7.582;2022-08-21T16:25:48;3.90;;;1.40;;
23804;SDS011;12083;52.098;7.582;2022-08-21T16:28:15;3.33;;;1.20;;
23804;SDS011;12083;52.098;7.582;2022-08-21T16:30:43;4.83;;;2.20;;
23804;SDS011;12083;52.098;7.582;2022-08-21T16:33:15;2.40;;;1.50;;
23804;SDS011;12083;52.098;7.582;2022-08-21T16:35:46;6.27;;;1.10;;
23804;SDS011;12083;52.098;7.582;2022-08-21T16:38:12;7.43;;;1.60;;
23804;SDS011;12083;52.098;7.582;2022-08-21T16:40:37;4.90;;;1.60;;
23804;SDS011;12083;52.098;7.582;2022-08-21T16:43:03;2.70;;;1.20;;
23804;SDS011;12083;52.098;7.582;2022-08-21T16:45:29;2.40;;;1.50;;
23804;SDS011;12083;52.098;7.582;2022-08-21T16:47:55;3.23;;;1.03;;
23804;SDS011;12083;52.098;7.582;2022-08-21T16:50:21;5.13;;;1.27;;
23804;SDS011;12083;52.098;7.582;2022-08-21T16:52:49;4.80;;;1.40;;
23804;SDS011;12083;52.098;7.582;2022-08-21T16:55:15;4.70;;;1.03;;
23804;SDS011;12083;52.098;7.582;2022-08-21T16:57:40;2.23;;;1.10;;
23804;SDS011;12083;52.098;7.582;2022-08-21T17:00:07;4.20;;;1.77;;
23804;SDS011;12083;52.098;7.582;2022-08-21T17:02:39;9.10;;;2.07;;
23804;SDS011;12083;52.098;7.582;2022-08-21T17:05:08;6.07;;;2.33;;
23804;SDS011;12083;52.098;7.582;2022-08-21T17:07:36;7.17;;;1.27;;